createdAt,value
2023-01-21T00:01:17.407Z,13.77
2023-01-21T00:03:46.120Z,16.50
2023-01-21T00:06:15.347Z,16.07
2023-01-21T00:08:43.367Z,16.17
2023-01-21T00:11:14.397Z,17.20
2023-01-21T00:13:43.458Z,15.13
2023-01-21T00:16:13.632Z,17.53
2023-01-21T00:18:41.964Z,14.67
2023-01-21T00:21:10.408Z,15.33
2023-01-21T00:23:38.439Z,15.40
2023-01-21T00:26:08.367Z,18.17
2023-01-21T00:28:37.267Z,17.93
2023-01-21T00:31:08.867Z,19.37
2023-01-21T00:33:39.038Z,19.73
2023-01-21T00:36:08.717Z,16.07
2023-01-21T00:38:37.145Z,20.27
2023-01-21T00:41:07.114Z,17.57
2023-01-21T00:43:35.620Z,20.40
2023-01-21T00:46:04.165Z,21.70
2023-01-21T00:48:32.356Z,17.47
2023-01-21T00:51:02.017Z,15.70
2023-01-21T00:53:31.386Z,17.80
2023-01-21T00:56:01.614Z,15.70
2023-01-21T00:58:30.311Z,15.60
2023-01-21T01:01:03.145Z,14.40
2023-01-21T01:03:31.556Z,18.77
2023-01-21T01:06:05.479Z,13.80
2023-01-21T01:08:33.984Z,14.57
2023-01-21T01:11:02.718Z,16.30
2023-01-21T01:13:31.607Z,13.63
2023-01-21T01:16:00.505Z,13.03
2023-01-21T01:18:29.404Z,14.83
2023-01-21T01:20:57.927Z,15.30
2023-01-21T01:23:27.755Z,18.43
2023-01-21T01:25:57.659Z,14.00
2023-01-21T01:28:25.801Z,16.33
2023-01-21T01:30:53.948Z,17.47
2023-01-21T01:33:22.037Z,14.83
2023-01-21T01:35:50.450Z,15.87
2023-01-21T01:38:20.922Z,17.70
2023-01-21T01:40:52.472Z,18.20
2023-01-21T01:43:22.597Z,22.00
2023-01-21T01:45:51.085Z,18.40
2023-01-21T01:48:23.030Z,25.83
2023-01-21T01:50:51.167Z,24.13
2023-01-21T01:53:20.430Z,27.53
2023-01-21T01:55:51.542Z,30.50
2023-01-21T01:58:21.759Z,26.30
2023-01-21T02:00:49.896Z,30.50
2023-01-21T02:03:36.460Z,24.53
2023-01-21T02:06:04.766Z,29.43
2023-01-21T02:08:34.612Z,29.37
2023-01-21T02:11:07.218Z,25.97
2023-01-21T02:13:35.208Z,26.30
2023-01-21T02:16:24.180Z,23.50
2023-01-21T02:19:00.673Z,20.67
2023-01-21T02:21:52.418Z,20.13
2023-01-21T02:24:56.530Z,24.73
2023-01-21T02:27:47.236Z,15.07
2023-01-21T02:30:42.397Z,16.57
2023-01-21T02:33:32.961Z,19.10
2023-01-21T02:36:11.849Z,18.40
2023-01-21T02:38:46.075Z,21.00
2023-01-21T02:41:24.540Z,20.20
2023-01-21T02:43:58.312Z,18.90
2023-01-21T02:46:32.308Z,20.13
2023-01-21T02:49:08.298Z,17.27
2023-01-21T02:51:36.546Z,16.07
2023-01-21T02:54:15.360Z,18.37
2023-01-21T02:56:45.408Z,19.00
2023-01-21T02:59:14.088Z,16.93
2023-01-21T03:02:00.408Z,15.17
2023-01-21T03:04:44.353Z,17.67
2023-01-21T03:07:21.453Z,16.70
2023-01-21T03:09:49.668Z,16.47
2023-01-21T03:12:35.259Z,22.77
2023-01-21T03:15:25.095Z,16.70
2023-01-21T03:17:58.720Z,18.50
2023-01-21T03:20:32.467Z,15.07
2023-01-21T03:23:03.705Z,16.90
2023-01-21T03:25:34.966Z,18.20
2023-01-21T03:28:09.099Z,17.63
2023-01-21T03:30:41.214Z,18.67
2023-01-21T03:33:11.965Z,15.50
2023-01-21T03:35:44.866Z,15.30
2023-01-21T03:38:17.510Z,17.10
2023-01-21T03:40:49.559Z,16.17
2023-01-21T03:43:17.728Z,14.07
2023-01-21T03:45:55.337Z,14.63
2023-01-21T03:48:29.512Z,15.80
2023-01-21T03:51:03.493Z,14.03
2023-01-21T03:53:31.561Z,18.10
2023-01-21T03:55:59.935Z,16.27
2023-01-21T03:58:28.866Z,16.00
2023-01-21T04:00:57.197Z,17.60
2023-01-21T04:03:25.379Z,13.10
2023-01-21T04:05:53.422Z,14.47
2023-01-21T04:08:22.759Z,14.73
2023-01-21T04:10:50.734Z,14.87
2023-01-21T04:13:19.129Z,16.07
2023-01-21T04:15:47.105Z,15.47
2023-01-21T04:18:15.117Z,15.27
2023-01-21T04:20:43.093Z,16.43
2023-01-21T04:23:11.463Z,14.17
2023-01-21T04:25:40.826Z,14.00
2023-01-21T04:28:08.833Z,15.63
2023-01-21T04:30:36.818Z,16.83
2023-01-21T04:33:04.966Z,19.30
2023-01-21T04:35:32.899Z,15.27
2023-01-21T04:38:01.452Z,16.57
2023-01-21T04:40:29.437Z,13.77
2023-01-21T04:42:59.004Z,14.70
2023-01-21T04:45:27.560Z,13.27
2023-01-21T04:47:55.921Z,15.70
2023-01-21T04:50:23.910Z,17.03
2023-01-21T04:52:52.035Z,16.07
2023-01-21T04:55:20.151Z,14.17
2023-01-21T04:57:48.170Z,14.97
2023-01-21T05:00:19.258Z,16.83
2023-01-21T05:02:47.382Z,16.60
2023-01-21T05:05:15.837Z,16.17
2023-01-21T05:07:43.815Z,18.30
2023-01-21T05:10:17.017Z,13.67
2023-01-21T05:12:45.117Z,16.23
2023-01-21T05:15:13.400Z,15.20
2023-01-21T05:17:42.753Z,13.10
2023-01-21T05:20:12.266Z,12.93
2023-01-21T05:22:40.618Z,15.13
2023-01-21T05:25:09.438Z,19.63
2023-01-21T05:27:37.418Z,15.17
2023-01-21T05:30:06.300Z,13.43
2023-01-21T05:32:35.787Z,11.83
2023-01-21T05:35:05.477Z,11.87
2023-01-21T05:37:33.464Z,11.97
2023-01-21T05:40:01.479Z,15.10
2023-01-21T05:42:29.524Z,14.00
2023-01-21T05:44:58.456Z,16.03
2023-01-21T05:47:26.462Z,15.47
2023-01-21T05:49:54.448Z,14.07
2023-01-21T05:52:23.803Z,13.00
2023-01-21T05:55:01.417Z,15.27
2023-01-21T05:57:31.572Z,11.77
2023-01-21T05:59:59.629Z,11.77
2023-01-21T06:02:27.796Z,18.43
2023-01-21T06:04:55.997Z,12.23
2023-01-21T06:07:25.374Z,11.80
2023-01-21T06:09:53.376Z,14.30
2023-01-21T06:12:23.815Z,17.57
2023-01-21T06:14:52.742Z,14.53
2023-01-21T06:17:20.786Z,13.00
2023-01-21T06:19:48.988Z,12.93
2023-01-21T06:22:17.364Z,13.27
2023-01-21T06:24:46.765Z,13.00
2023-01-21T06:27:14.760Z,11.57
2023-01-21T06:29:42.771Z,14.03
2023-01-21T06:32:10.903Z,17.37
2023-01-21T06:34:39.262Z,13.27
2023-01-21T06:37:07.798Z,12.47
2023-01-21T06:39:35.794Z,12.97
2023-01-21T06:42:05.335Z,11.50
2023-01-21T06:44:33.537Z,14.33
2023-01-21T06:49:51.651Z,9.67
2023-01-21T06:52:19.847Z,13.80
2023-01-21T06:55:10.569Z,14.60
2023-01-21T06:57:40.600Z,11.13
2023-01-21T07:00:10.253Z,13.90
2023-01-21T07:02:38.926Z,10.47
2023-01-21T07:05:07.967Z,12.97
2023-01-21T07:07:36.015Z,12.87
2023-01-21T07:10:06.315Z,14.53
2023-01-21T07:12:34.498Z,11.90
2023-01-21T07:15:04.176Z,12.20
2023-01-21T07:17:32.750Z,12.90
2023-01-21T07:20:00.739Z,12.97
2023-01-21T07:22:29.010Z,15.17
2023-01-21T07:24:58.025Z,14.77
2023-01-21T07:27:26.254Z,15.97
2023-01-21T07:29:54.274Z,11.37
2023-01-21T07:32:24.454Z,13.17
2023-01-21T07:34:52.464Z,10.83
2023-01-21T07:37:20.491Z,14.13
2023-01-21T07:39:48.514Z,12.00
2023-01-21T07:42:16.486Z,11.33
2023-01-21T07:44:44.822Z,12.23
2023-01-21T07:47:12.801Z,14.10
2023-01-21T07:49:42.329Z,12.87
2023-01-21T07:52:10.328Z,12.80
2023-01-21T07:54:38.361Z,11.27
2023-01-21T07:57:06.781Z,12.07
2023-01-21T07:59:35.164Z,10.87
2023-01-21T08:02:03.316Z,10.50
2023-01-21T08:04:31.417Z,9.97
2023-01-21T08:07:01.871Z,11.27
2023-01-21T08:09:29.885Z,17.10
2023-01-21T08:11:57.880Z,10.83
2023-01-21T08:14:26.038Z,13.87
2023-01-21T08:16:54.014Z,13.47
2023-01-21T08:19:22.117Z,16.60
2023-01-21T08:21:50.090Z,13.23
2023-01-21T08:24:19.516Z,16.30
2023-01-21T08:26:48.966Z,14.77
2023-01-21T08:29:16.968Z,13.00
2023-01-21T08:31:45.053Z,16.03
2023-01-21T08:34:13.110Z,14.40
2023-01-21T08:36:41.086Z,25.17
2023-01-21T08:39:10.849Z,20.47
2023-01-21T08:41:40.430Z,20.33
2023-01-21T08:44:08.929Z,23.63
2023-01-21T08:46:36.992Z,23.20
2023-01-21T08:49:06.720Z,35.83
2023-01-21T08:51:34.797Z,40.37
2023-01-21T08:54:02.822Z,43.10
2023-01-21T08:56:30.857Z,47.63
2023-01-21T08:59:00.284Z,46.73
2023-01-21T09:01:29.083Z,47.57
2023-01-21T09:03:57.570Z,36.80
2023-01-21T09:06:26.808Z,34.07
2023-01-21T09:08:55.147Z,35.07
2023-01-21T09:11:23.644Z,38.73
2023-01-21T09:13:51.688Z,34.70
2023-01-21T09:16:22.637Z,43.80
2023-01-21T09:18:50.950Z,38.50
2023-01-21T09:21:19.245Z,33.40
2023-01-21T09:23:47.253Z,31.77
2023-01-21T09:26:17.134Z,29.90
2023-01-21T09:28:47.238Z,30.83
2023-01-21T09:31:18.233Z,26.23
2023-01-21T09:33:50.648Z,30.03
2023-01-21T09:36:21.286Z,25.17
2023-01-21T09:38:50.268Z,27.37
2023-01-21T09:41:27.247Z,28.40
2023-01-21T09:44:01.335Z,28.70
2023-01-21T09:46:40.297Z,30.13
2023-01-21T09:49:15.943Z,30.40
2023-01-21T09:51:49.689Z,27.20
2023-01-21T09:54:26.805Z,33.10
2023-01-21T09:57:22.412Z,26.67
2023-01-21T10:00:20.849Z,46.93
2023-01-21T10:03:00.276Z,27.03
2023-01-21T10:05:48.151Z,28.90
2023-01-21T10:08:25.770Z,27.13
2023-01-21T10:11:01.988Z,28.93
2023-01-21T10:13:41.951Z,26.17
2023-01-21T10:16:20.218Z,24.70
2023-01-21T10:18:52.210Z,20.73
2023-01-21T10:21:30.370Z,25.23
2023-01-21T10:24:02.739Z,20.17
2023-01-21T10:26:32.948Z,18.23
2023-01-21T10:29:01.593Z,20.17
2023-01-21T10:31:31.333Z,22.00
2023-01-21T10:33:59.437Z,20.03
2023-01-21T10:36:58.430Z,20.83
2023-01-21T10:39:42.394Z,23.27
2023-01-21T10:42:32.021Z,21.63
2023-01-21T10:45:08.157Z,23.23
2023-01-21T10:47:44.898Z,19.27
2023-01-21T10:50:26.732Z,18.63
2023-01-21T10:53:01.974Z,12.97
2023-01-21T10:55:40.508Z,22.73
2023-01-21T10:58:17.116Z,17.13
2023-01-21T11:00:48.209Z,16.83
2023-01-21T11:03:21.050Z,21.57
2023-01-21T11:05:50.137Z,19.30
2023-01-21T11:08:22.211Z,20.13
2023-01-21T11:10:55.147Z,16.93
2023-01-21T11:13:23.957Z,16.43
2023-01-21T11:15:54.441Z,14.83
2023-01-21T11:18:31.083Z,17.77
2023-01-21T11:21:01.586Z,18.63
2023-01-21T11:23:34.623Z,14.90
2023-01-21T11:26:05.665Z,16.37
2023-01-21T11:28:34.409Z,14.50
2023-01-21T11:31:14.829Z,15.30
2023-01-21T11:33:44.789Z,14.87
2023-01-21T11:36:18.397Z,18.47
2023-01-21T11:39:00.570Z,15.20
2023-01-21T11:41:29.200Z,13.97
2023-01-21T11:44:09.599Z,17.43
2023-01-21T11:46:39.298Z,17.60
2023-01-21T11:49:29.333Z,15.03
2023-01-21T11:52:16.702Z,23.00
2023-01-21T11:54:47.138Z,16.87
2023-01-21T11:57:23.730Z,13.20
2023-01-21T11:59:53.215Z,9.83
2023-01-21T12:02:24.595Z,15.15
2023-01-21T12:04:56.389Z,17.17
2023-01-21T12:07:28.633Z,16.77
2023-01-21T12:10:06.009Z,15.60
2023-01-21T12:12:45.408Z,12.70
2023-01-21T12:15:26.020Z,13.27
2023-01-21T12:18:01.537Z,11.90
2023-01-21T12:20:36.761Z,13.60
2023-01-21T12:23:40.708Z,13.37
2023-01-21T12:26:26.274Z,12.53
2023-01-21T12:29:10.320Z,12.07
2023-01-21T12:31:42.688Z,12.13
2023-01-21T12:34:16.706Z,11.03
2023-01-21T12:36:50.207Z,10.00
2023-01-21T12:39:22.788Z,12.07
2023-01-21T12:42:05.424Z,15.20
2023-01-21T12:44:39.265Z,10.57
2023-01-21T12:47:15.830Z,10.30
2023-01-21T12:50:08.161Z,9.18
2023-01-21T12:52:43.738Z,9.45
2023-01-21T12:55:20.548Z,11.02
2023-01-21T12:57:57.499Z,8.30
2023-01-21T13:00:28.374Z,10.73
2023-01-21T13:03:04.269Z,10.18
2023-01-21T13:05:41.067Z,9.33
2023-01-21T13:08:36.708Z,6.78
2023-01-21T13:11:11.527Z,8.90
2023-01-21T13:13:45.154Z,11.07
2023-01-21T13:16:13.528Z,7.07
2023-01-21T13:18:44.602Z,8.90
2023-01-21T13:21:22.340Z,14.25
2023-01-21T13:23:53.880Z,17.60
2023-01-21T13:26:30.016Z,16.17
2023-01-21T13:29:04.089Z,15.90
2023-01-21T13:31:39.992Z,49.33
2023-01-21T13:34:14.871Z,7.25
2023-01-21T13:37:07.877Z,11.80
2023-01-21T13:39:45.152Z,12.32
2023-01-21T13:42:32.228Z,12.65
2023-01-21T13:45:21.282Z,11.97
2023-01-21T13:48:03.344Z,11.10
2023-01-21T13:50:47.556Z,8.23
2023-01-21T13:53:39.855Z,4.27
2023-01-21T13:56:23.521Z,8.93
2023-01-21T13:58:54.580Z,6.33
2023-01-21T14:01:27.271Z,7.57
2023-01-21T14:04:03.146Z,8.77
2023-01-21T14:06:36.736Z,6.68
2023-01-21T14:09:08.188Z,9.25
2023-01-21T14:11:40.775Z,10.55
2023-01-21T14:14:40.149Z,11.88
2023-01-21T14:17:40.343Z,12.23
2023-01-21T14:20:35.571Z,7.45
2023-01-21T14:23:21.351Z,6.00
2023-01-21T14:26:01.882Z,11.27
2023-01-21T14:28:37.982Z,12.45
2023-01-21T14:31:12.062Z,19.02
2023-01-21T14:33:45.508Z,22.65
2023-01-21T14:36:21.194Z,16.02
2023-01-21T14:39:00.230Z,8.32
2023-01-21T14:41:56.248Z,7.18
2023-01-21T14:44:39.012Z,6.20
2023-01-21T14:47:18.792Z,5.50
2023-01-21T14:49:50.195Z,4.05
2023-01-21T14:52:19.986Z,7.03
2023-01-21T14:54:49.283Z,8.95
2023-01-21T14:57:29.340Z,9.45
2023-01-21T15:00:11.237Z,6.40
2023-01-21T15:02:42.800Z,7.63
2023-01-21T15:05:24.427Z,7.50
2023-01-21T15:08:22.432Z,6.47
2023-01-21T15:10:54.334Z,11.17
2023-01-21T15:13:31.982Z,8.50
2023-01-21T15:16:08.339Z,15.05
2023-01-21T15:18:38.734Z,15.73
2023-01-21T15:21:34.383Z,19.47
2023-01-21T15:24:21.040Z,8.67
2023-01-21T15:27:13.902Z,10.20
2023-01-21T15:29:43.168Z,6.73
2023-01-21T15:32:27.148Z,6.68
2023-01-21T15:34:58.761Z,11.03
2023-01-21T15:37:30.554Z,8.25
2023-01-21T15:40:01.314Z,5.87
2023-01-21T15:42:41.992Z,8.48
2023-01-21T15:45:24.776Z,7.63
2023-01-21T15:48:18.111Z,8.73
2023-01-21T15:50:54.745Z,6.90
2023-01-21T15:53:46.810Z,6.70
2023-01-21T15:56:27.927Z,5.50
2023-01-21T15:59:06.372Z,6.83
2023-01-21T16:01:37.021Z,8.70
2023-01-21T16:04:26.034Z,6.93
2023-01-21T16:07:11.536Z,6.07
2023-01-21T16:09:53.170Z,8.80
2023-01-21T16:12:28.547Z,8.07
2023-01-21T16:15:02.955Z,10.53
2023-01-21T16:17:50.893Z,10.23
2023-01-21T16:20:19.441Z,7.37
2023-01-21T16:22:52.832Z,6.57
2023-01-21T16:25:25.749Z,7.37
2023-01-21T16:27:55.736Z,7.60
2023-01-21T16:30:27.924Z,5.27
2023-01-21T16:33:09.545Z,6.10
2023-01-21T16:35:45.983Z,10.70
2023-01-21T16:38:19.463Z,10.17
2023-01-21T16:40:51.476Z,7.87
2023-01-21T16:43:25.572Z,5.87
2023-01-21T16:45:56.252Z,10.70
2023-01-21T16:48:26.903Z,6.23
2023-01-21T16:50:55.791Z,6.87
2023-01-21T16:53:25.300Z,10.70
2023-01-21T16:55:56.123Z,8.00
2023-01-21T16:58:29.460Z,6.10
2023-01-21T17:01:12.233Z,6.63
2023-01-21T17:03:40.346Z,8.63
2023-01-21T17:06:12.571Z,8.47
2023-01-21T17:08:41.314Z,7.60
2023-01-21T17:11:12.582Z,5.90
2023-01-21T17:13:43.704Z,8.57
2023-01-21T17:16:23.864Z,9.20
2023-01-21T17:18:55.206Z,8.40
2023-01-21T17:21:32.362Z,7.10
2023-01-21T17:24:03.738Z,8.83
2023-01-21T17:26:38.369Z,7.03
2023-01-21T17:29:11.587Z,9.23
2023-01-21T17:31:41.216Z,8.37
2023-01-21T17:34:21.389Z,10.60
2023-01-21T17:36:51.679Z,10.60
2023-01-21T17:40:00.542Z,13.63
2023-01-21T17:42:40.974Z,13.50
2023-01-21T17:45:19.164Z,10.73
2023-01-21T17:48:08.043Z,16.97
2023-01-21T17:50:37.643Z,13.40
2023-01-21T17:53:09.952Z,16.13
2023-01-21T17:55:39.182Z,11.23
2023-01-21T17:58:45.648Z,11.20
2023-01-21T18:01:14.308Z,9.90
2023-01-21T18:03:42.388Z,9.23
2023-01-21T18:06:17.944Z,13.73
2023-01-21T18:08:46.305Z,12.90
2023-01-21T18:11:16.682Z,15.53
2023-01-21T18:13:46.151Z,13.07
2023-01-21T18:16:14.662Z,12.80
2023-01-21T18:18:42.885Z,11.40
2023-01-21T18:21:18.479Z,12.83
2023-01-21T18:23:46.654Z,9.83
2023-01-21T18:26:27.348Z,10.47
2023-01-21T18:28:56.819Z,12.87
2023-01-21T18:31:25.088Z,15.43
2023-01-21T18:33:53.142Z,11.87
2023-01-21T18:36:21.171Z,15.33
2023-01-21T18:38:49.202Z,13.73
2023-01-21T18:41:17.196Z,10.37
2023-01-21T18:43:45.314Z,12.80
2023-01-21T18:46:16.244Z,13.97
2023-01-21T18:48:44.413Z,15.40
2023-01-21T18:51:14.594Z,13.00
2023-01-21T18:53:42.687Z,19.03
2023-01-21T18:56:14.052Z,22.50
2023-01-21T18:58:42.426Z,25.77
2023-01-21T19:01:22.561Z,32.23
2023-01-21T19:03:54.573Z,24.80
2023-01-21T19:06:24.540Z,13.10
2023-01-21T19:08:55.438Z,13.20
2023-01-21T19:11:23.652Z,14.30
2023-01-21T19:13:51.757Z,14.90
2023-01-21T19:16:21.662Z,11.90
2023-01-21T19:18:49.835Z,14.17
2023-01-21T19:21:19.200Z,16.90
2023-01-21T19:23:47.281Z,14.77
2023-01-21T19:26:15.386Z,15.63
2023-01-21T19:28:43.475Z,17.57
2023-01-21T19:31:11.747Z,17.07
2023-01-21T19:33:41.886Z,14.67
2023-01-21T19:36:15.814Z,17.10
2023-01-21T19:38:49.150Z,13.77
2023-01-21T19:41:17.138Z,15.63
2023-01-21T19:43:46.367Z,16.67
2023-01-21T19:46:14.536Z,16.80
2023-01-21T19:48:42.597Z,15.90
2023-01-21T19:51:10.839Z,12.50
2023-01-21T19:53:38.882Z,19.43
2023-01-21T19:56:13.963Z,26.80
2023-01-21T19:58:42.278Z,36.17
2023-01-21T20:01:10.330Z,21.13
2023-01-21T20:03:41.556Z,22.40
2023-01-21T20:06:13.715Z,20.33
2023-01-21T20:08:42.001Z,23.03
2023-01-21T20:11:11.372Z,19.97
2023-01-21T20:13:39.529Z,19.00
2023-01-21T20:16:16.117Z,19.87
2023-01-21T20:18:46.156Z,20.30
2023-01-21T20:21:14.231Z,16.57
2023-01-21T20:23:43.116Z,14.77
2023-01-21T20:26:18.456Z,15.30
2023-01-21T20:28:51.055Z,15.67
2023-01-21T20:31:19.445Z,22.27
2023-01-21T20:33:47.554Z,16.47
2023-01-21T20:36:19.985Z,14.57
2023-01-21T20:38:48.618Z,14.33
2023-01-21T20:41:18.275Z,14.20
2023-01-21T20:43:46.330Z,18.37
2023-01-21T20:46:18.274Z,14.47
2023-01-21T20:48:47.082Z,15.60
2023-01-21T20:51:15.543Z,16.23
2023-01-21T20:53:43.634Z,15.67
2023-01-21T20:56:21.962Z,15.97
2023-01-21T20:58:50.628Z,19.77
2023-01-21T21:01:20.334Z,17.67
2023-01-21T21:03:48.925Z,16.53
2023-01-21T21:06:20.131Z,14.23
2023-01-21T21:08:49.286Z,17.90
2023-01-21T21:11:19.699Z,15.63
2023-01-21T21:13:51.629Z,14.97
2023-01-21T21:16:22.223Z,20.53
2023-01-21T21:18:50.995Z,17.23
2023-01-21T21:21:22.447Z,15.93
2023-01-21T21:23:52.920Z,19.67
2023-01-21T21:26:24.689Z,17.17
2023-01-21T21:28:54.563Z,17.27
2023-01-21T21:31:23.237Z,16.57
2023-01-21T21:33:51.460Z,16.73
2023-01-21T21:36:21.067Z,16.90
2023-01-21T21:38:50.494Z,16.13
2023-01-21T21:41:38.495Z,19.23
2023-01-21T21:44:09.259Z,20.73
2023-01-21T21:46:54.322Z,19.77
2023-01-21T21:49:22.532Z,17.87
2023-01-21T21:51:50.556Z,20.37
2023-01-21T21:54:18.881Z,15.90
2023-01-21T21:56:47.296Z,17.23
2023-01-21T21:59:17.685Z,18.20
2023-01-21T22:01:45.678Z,15.77
2023-01-21T22:04:13.754Z,18.50
2023-01-21T22:06:41.799Z,15.00
2023-01-21T22:09:10.928Z,17.73
2023-01-21T22:11:39.125Z,21.43
2023-01-21T22:14:08.233Z,23.30
2023-01-21T22:16:37.700Z,19.73
2023-01-21T22:19:05.772Z,16.87
2023-01-21T22:21:35.430Z,18.37
2023-01-21T22:24:05.482Z,21.63
2023-01-21T22:26:35.338Z,20.53
2023-01-21T22:29:03.855Z,19.60
2023-01-21T22:31:33.335Z,18.00
2023-01-21T22:34:02.771Z,15.57
2023-01-21T22:36:31.741Z,17.77
2023-01-21T22:39:00.079Z,13.10
2023-01-21T22:41:28.450Z,13.20
2023-01-21T22:43:56.676Z,16.67
2023-01-21T22:46:27.168Z,16.60
2023-01-21T22:48:55.871Z,16.40
2023-01-21T22:51:25.342Z,18.83
2023-01-21T22:53:54.376Z,18.70
2023-01-21T22:56:39.907Z,22.27
2023-01-21T22:59:12.713Z,16.97
2023-01-21T23:01:40.907Z,23.80
2023-01-21T23:04:10.096Z,19.00
2023-01-21T23:06:39.555Z,16.93
2023-01-21T23:09:11.229Z,16.47
2023-01-21T23:11:41.231Z,25.80
2023-01-21T23:14:10.589Z,19.30
2023-01-21T23:16:38.666Z,22.83
2023-01-21T23:19:07.087Z,16.43
2023-01-21T23:21:37.496Z,18.50
2023-01-21T23:24:08.092Z,20.07
2023-01-21T23:26:36.223Z,17.63
2023-01-21T23:29:04.780Z,18.13
2023-01-21T23:31:32.835Z,18.00
2023-01-21T23:34:00.839Z,18.10
2023-01-21T23:36:29.121Z,18.67
2023-01-21T23:38:57.100Z,17.87
2023-01-21T23:41:26.840Z,18.43
2023-01-21T23:43:54.809Z,19.37
2023-01-21T23:46:22.882Z,16.10
2023-01-21T23:48:50.898Z,18.70
2023-01-21T23:51:19.635Z,20.27
2023-01-21T23:53:48.898Z,17.07
2023-01-21T23:56:20.336Z,21.57
2023-01-21T23:58:50.251Z,18.77
